createdAt,value
2022-09-21T00:01:24.501Z,14.04
2022-09-21T00:03:58.471Z,14.07
2022-09-21T00:06:27.765Z,14.11
2022-09-21T00:08:56.007Z,14.15
2022-09-21T00:11:28.414Z,14.18
2022-09-21T00:14:04.200Z,14.24
2022-09-21T00:16:32.170Z,14.24
2022-09-21T00:19:00.165Z,14.31
2022-09-21T00:21:28.221Z,14.34
2022-09-21T00:23:55.455Z,14.38
2022-09-21T00:26:25.737Z,14.40
2022-09-21T00:28:58.459Z,14.40
2022-09-21T00:31:26.055Z,14.42
2022-09-21T00:33:53.612Z,14.43
2022-09-21T00:36:24.783Z,14.44
2022-09-21T00:38:54.871Z,14.44
2022-09-21T00:41:22.372Z,14.44
2022-09-21T00:44:18.185Z,14.41
2022-09-21T00:46:47.049Z,14.40
2022-09-21T00:49:14.939Z,14.38
2022-09-21T00:51:42.673Z,14.34
2022-09-21T00:54:16.324Z,14.34
2022-09-21T00:56:44.775Z,14.32
2022-09-21T00:59:13.592Z,14.31
2022-09-21T01:01:41.136Z,14.28
2022-09-21T01:04:09.590Z,14.23
2022-09-21T01:06:38.551Z,14.25
2022-09-21T01:09:05.656Z,14.22
2022-09-21T01:12:08.779Z,14.17
2022-09-21T01:15:09.940Z,14.13
2022-09-21T01:17:51.626Z,14.09
2022-09-21T01:20:55.243Z,14.04
2022-09-21T01:23:58.100Z,13.98
2022-09-21T01:27:09.581Z,13.93
2022-09-21T01:29:44.963Z,13.91
2022-09-21T01:32:26.950Z,13.88
2022-09-21T01:35:36.050Z,13.83
2022-09-21T01:38:08.827Z,13.80
2022-09-21T01:40:42.213Z,13.77
2022-09-21T01:43:18.122Z,13.78
2022-09-21T01:45:50.456Z,13.74
2022-09-21T01:48:18.871Z,13.74
2022-09-21T01:50:52.358Z,13.72
2022-09-21T01:53:39.388Z,13.68
2022-09-21T01:56:45.044Z,13.67
2022-09-21T01:59:30.729Z,13.65
2022-09-21T02:02:14.533Z,13.65
2022-09-21T02:04:41.544Z,13.64
2022-09-21T02:07:09.054Z,13.66
2022-09-21T02:09:37.485Z,13.65
2022-09-21T02:12:05.535Z,13.65
2022-09-21T02:14:34.958Z,13.63
2022-09-21T02:17:27.962Z,13.60
2022-09-21T02:20:19.792Z,13.57
2022-09-21T02:23:06.226Z,13.57
2022-09-21T02:25:49.296Z,13.57
2022-09-21T02:28:44.191Z,13.59
2022-09-21T02:31:21.081Z,13.60
2022-09-21T02:34:02.484Z,13.61
2022-09-21T02:36:45.747Z,13.64
2022-09-21T02:39:18.584Z,13.66
2022-09-21T02:42:12.361Z,13.64
2022-09-21T02:44:48.730Z,13.69
2022-09-21T02:47:36.989Z,13.67
2022-09-21T02:50:10.712Z,13.70
2022-09-21T02:52:41.184Z,13.71
2022-09-21T02:55:09.242Z,13.74
2022-09-21T02:57:38.199Z,13.76
2022-09-21T03:00:07.265Z,13.76
2022-09-21T03:02:44.019Z,13.76
2022-09-21T03:05:13.512Z,13.76
2022-09-21T03:07:40.652Z,13.75
2022-09-21T03:10:09.276Z,13.76
2022-09-21T03:12:36.706Z,13.74
2022-09-21T03:15:04.807Z,13.72
2022-09-21T03:17:31.696Z,13.71
2022-09-21T03:19:58.554Z,13.67
2022-09-21T03:22:25.503Z,13.66
2022-09-21T03:24:53.298Z,13.64
2022-09-21T03:27:21.259Z,13.60
2022-09-21T03:29:48.257Z,13.56
2022-09-21T03:32:15.553Z,13.52
2022-09-21T03:34:42.451Z,13.46
2022-09-21T03:37:10.789Z,13.50
2022-09-21T03:39:37.736Z,13.47
2022-09-21T03:42:05.012Z,13.40
2022-09-21T03:44:31.961Z,13.40
2022-09-21T03:46:58.859Z,13.37
2022-09-21T03:49:26.230Z,13.34
2022-09-21T03:51:53.132Z,13.33
2022-09-21T03:54:21.358Z,13.27
2022-09-21T03:56:48.234Z,13.27
2022-09-21T03:59:15.336Z,13.25
2022-09-21T04:01:42.526Z,13.22
2022-09-21T04:04:10.243Z,13.21
2022-09-21T04:06:37.136Z,13.19
2022-09-21T04:09:04.034Z,13.18
2022-09-21T04:11:32.405Z,13.16
2022-09-21T04:13:59.864Z,13.12
2022-09-21T04:16:27.760Z,13.13
2022-09-21T04:18:54.679Z,13.10
2022-09-21T04:21:22.251Z,13.10
2022-09-21T04:23:49.886Z,13.06
2022-09-21T04:26:27.231Z,13.04
2022-09-21T04:28:55.333Z,13.03
2022-09-21T04:31:24.191Z,13.02
2022-09-21T04:33:52.952Z,12.94
2022-09-21T04:36:21.752Z,13.00
2022-09-21T04:38:48.970Z,12.99
2022-09-21T04:41:16.114Z,12.97
2022-09-21T04:43:48.113Z,12.96
2022-09-21T04:46:18.574Z,12.94
2022-09-21T04:48:46.446Z,12.93
2022-09-21T04:51:15.043Z,12.91
2022-09-21T04:53:43.974Z,12.89
2022-09-21T04:56:14.428Z,12.88
2022-09-21T04:58:41.305Z,12.88
2022-09-21T05:01:08.246Z,12.87
2022-09-21T05:03:35.272Z,12.86
2022-09-21T05:06:02.557Z,12.87
2022-09-21T05:08:48.107Z,12.88
2022-09-21T05:11:20.727Z,12.85
2022-09-21T05:13:48.502Z,12.82
2022-09-21T05:16:16.780Z,12.85
2022-09-21T05:18:44.532Z,12.84
2022-09-21T05:21:13.724Z,12.86
2022-09-21T05:23:40.943Z,12.84
2022-09-21T05:26:07.995Z,12.89
2022-09-21T05:28:39.684Z,12.89
2022-09-21T05:31:19.306Z,12.88
2022-09-21T05:33:55.068Z,12.90
2022-09-21T05:37:02.668Z,12.92
2022-09-21T05:39:29.864Z,12.93
2022-09-21T05:41:56.959Z,12.95
2022-09-21T05:44:24.370Z,12.98
2022-09-21T05:47:19.498Z,13.01
2022-09-21T05:50:05.925Z,13.05
2022-09-21T05:53:04.859Z,13.07
2022-09-21T05:55:55.533Z,13.11
2022-09-21T05:58:47.695Z,13.17
2022-09-21T06:01:41.366Z,13.20
2022-09-21T06:04:14.724Z,13.25
2022-09-21T06:06:41.604Z,13.31
2022-09-21T06:09:08.494Z,13.33
2022-09-21T06:11:35.719Z,13.40
2022-09-21T06:14:03.035Z,13.46
2022-09-21T06:16:43.270Z,13.52
2022-09-21T06:19:13.607Z,13.58
2022-09-21T06:21:40.495Z,13.65
2022-09-21T06:24:07.681Z,13.71
2022-09-21T06:26:34.855Z,13.76
2022-09-21T06:29:01.744Z,13.83
2022-09-21T06:31:28.656Z,13.89
2022-09-21T06:33:55.610Z,13.96
2022-09-21T06:36:22.477Z,14.02
2022-09-21T06:38:49.356Z,14.09
2022-09-21T06:41:20.835Z,14.16
2022-09-21T06:43:48.403Z,14.19
2022-09-21T06:46:15.436Z,14.30
2022-09-21T06:48:42.345Z,14.37
2022-09-21T06:51:10.362Z,14.44
2022-09-21T06:53:37.274Z,14.51
2022-09-21T06:56:06.720Z,14.57
2022-09-21T06:58:34.583Z,14.66
2022-09-21T07:01:10.662Z,14.74
2022-09-21T07:03:39.429Z,14.80
2022-09-21T07:06:08.342Z,14.89
2022-09-21T07:11:23.998Z,15.06
2022-09-21T07:13:51.109Z,15.15
2022-09-21T07:16:19.499Z,15.21
2022-09-21T07:18:46.544Z,15.30
2022-09-21T07:21:14.758Z,15.04
2022-09-21T07:23:41.687Z,15.42
2022-09-21T07:26:13.036Z,15.49
2022-09-21T07:28:40.688Z,15.63
2022-09-21T07:31:15.807Z,15.70
2022-09-21T07:33:46.498Z,15.80
2022-09-21T07:36:13.823Z,15.84
2022-09-21T07:38:43.760Z,15.96
2022-09-21T07:41:13.160Z,16.05
2022-09-21T07:43:40.442Z,16.14
2022-09-21T07:46:14.429Z,16.24
2022-09-21T07:48:41.441Z,16.33
2022-09-21T07:51:12.422Z,16.38
2022-09-21T07:53:42.415Z,16.54
2022-09-21T07:56:13.087Z,16.69
2022-09-21T07:58:59.273Z,16.81
2022-09-21T08:01:27.222Z,16.87
2022-09-21T08:03:56.841Z,17.00
2022-09-21T08:06:26.417Z,17.12
2022-09-21T08:08:57.441Z,17.24
2022-09-21T08:11:27.610Z,17.35
2022-09-21T08:14:01.420Z,17.46
2022-09-21T08:16:30.015Z,17.55
2022-09-21T08:18:57.206Z,17.65
2022-09-21T08:21:24.094Z,17.73
2022-09-21T08:23:50.990Z,17.82
2022-09-21T08:26:19.725Z,17.89
2022-09-21T08:28:49.783Z,17.92
2022-09-21T08:31:19.562Z,17.95
2022-09-21T08:33:48.009Z,17.98
2022-09-21T08:36:14.888Z,18.02
2022-09-21T08:38:41.991Z,18.02
2022-09-21T08:41:18.048Z,18.04
2022-09-21T08:44:13.265Z,18.13
2022-09-21T08:46:42.491Z,18.17
2022-09-21T08:49:16.097Z,18.23
2022-09-21T08:51:53.118Z,18.22
2022-09-21T08:54:30.584Z,18.23
2022-09-21T08:57:06.000Z,18.29
2022-09-21T08:59:35.251Z,18.37
2022-09-21T09:02:21.134Z,18.49
2022-09-21T09:05:06.495Z,18.60
2022-09-21T09:07:59.510Z,18.72
2022-09-21T09:11:01.121Z,18.79
2022-09-21T09:13:56.826Z,19.00
2022-09-21T09:16:58.735Z,19.17
2022-09-21T09:20:19.056Z,19.24
2022-09-21T09:23:14.133Z,19.35
2022-09-21T09:25:43.493Z,19.43
2022-09-21T09:28:27.116Z,19.41
2022-09-21T09:31:12.522Z,19.43
2022-09-21T09:33:52.920Z,19.52
2022-09-21T09:36:34.828Z,19.63
2022-09-21T09:39:15.899Z,19.73
2022-09-21T09:42:09.160Z,19.73
2022-09-21T09:45:12.722Z,19.88
2022-09-21T09:47:59.024Z,20.00
2022-09-21T09:50:34.317Z,20.06
2022-09-21T09:53:12.427Z,20.11
2022-09-21T09:56:01.021Z,20.14
2022-09-21T09:58:49.973Z,20.21
2022-09-21T10:01:42.744Z,20.25
2022-09-21T10:04:13.566Z,20.38
2022-09-21T10:06:46.082Z,20.44
2022-09-21T10:09:34.202Z,20.46
2022-09-21T10:12:24.213Z,20.47
2022-09-21T10:14:53.853Z,20.49
2022-09-21T10:17:21.470Z,20.49
2022-09-21T10:19:48.599Z,20.51
2022-09-21T10:22:20.107Z,20.56
2022-09-21T10:24:51.914Z,20.57
2022-09-21T10:27:26.163Z,20.58
2022-09-21T10:29:53.100Z,20.63
2022-09-21T10:32:22.782Z,20.69
2022-09-21T10:35:22.364Z,20.75
2022-09-21T10:38:09.493Z,20.76
2022-09-21T10:40:38.652Z,20.79
2022-09-21T10:43:05.729Z,20.85
2022-09-21T10:45:37.150Z,20.89
2022-09-21T10:48:14.243Z,20.87
2022-09-21T10:50:49.068Z,20.85
2022-09-21T10:53:34.217Z,20.85
2022-09-21T10:56:30.436Z,20.84
2022-09-21T10:59:26.554Z,20.91
2022-09-21T11:01:57.143Z,20.99
2022-09-21T11:04:46.175Z,21.05
2022-09-21T11:07:39.287Z,21.12
2022-09-21T11:10:34.635Z,21.21
2022-09-21T11:13:25.481Z,21.27
2022-09-21T11:16:11.982Z,21.33
2022-09-21T11:19:27.952Z,21.33
2022-09-21T11:22:17.229Z,21.32
2022-09-21T11:25:09.529Z,21.38
2022-09-21T11:27:43.943Z,21.48
2022-09-21T11:30:13.444Z,21.58
2022-09-21T11:33:20.159Z,21.69
2022-09-21T11:36:17.982Z,21.81
2022-09-21T11:39:31.175Z,21.86
2022-09-21T11:42:24.147Z,21.96
2022-09-21T11:44:58.262Z,21.98
2022-09-21T11:47:51.805Z,21.97
2022-09-21T11:50:34.430Z,22.03
2022-09-21T11:53:22.019Z,22.07
2022-09-21T11:56:19.038Z,22.17
2022-09-21T11:59:17.583Z,22.23
2022-09-21T12:02:22.574Z,22.26
2022-09-21T12:05:03.734Z,22.30
2022-09-21T12:08:07.997Z,22.36
2022-09-21T12:11:16.148Z,22.34
2022-09-21T12:14:07.806Z,22.36
2022-09-21T12:17:21.207Z,22.37
2022-09-21T12:20:26.632Z,22.40
2022-09-21T12:23:02.555Z,22.38
2022-09-21T12:25:37.739Z,22.36
2022-09-21T12:28:23.000Z,22.35
2022-09-21T12:31:00.620Z,22.30
2022-09-21T12:33:35.869Z,22.26
2022-09-21T12:36:14.669Z,22.19
2022-09-21T12:38:51.790Z,22.12
2022-09-21T12:42:11.305Z,22.04
2022-09-21T12:44:53.352Z,22.03
2022-09-21T12:47:39.786Z,22.07
2022-09-21T12:50:45.177Z,22.07
2022-09-21T12:53:20.496Z,22.08
2022-09-21T12:56:30.554Z,22.12
2022-09-21T12:59:28.573Z,22.16
2022-09-21T13:02:42.214Z,22.19
2022-09-21T13:05:30.874Z,22.28
2022-09-21T13:08:18.059Z,22.35
2022-09-21T13:11:01.259Z,22.38
2022-09-21T13:13:35.246Z,22.48
2022-09-21T13:16:04.573Z,22.57
2022-09-21T13:18:41.691Z,22.63
2022-09-21T13:21:29.899Z,22.70
2022-09-21T13:24:02.798Z,22.77
2022-09-21T13:26:38.058Z,22.88
2022-09-21T13:29:28.437Z,22.94
2022-09-21T13:32:11.611Z,22.98
2022-09-21T13:34:41.326Z,23.07
2022-09-21T13:37:19.803Z,23.11
2022-09-21T13:40:01.650Z,23.18
2022-09-21T13:42:37.035Z,23.25
2022-09-21T13:45:15.690Z,23.33
2022-09-21T13:47:48.075Z,23.33
2022-09-21T13:50:42.720Z,23.27
2022-09-21T13:53:29.956Z,23.29
2022-09-21T13:56:08.836Z,23.28
2022-09-21T13:58:44.860Z,23.29
2022-09-21T14:01:45.253Z,23.33
2022-09-21T14:04:31.447Z,23.40
2022-09-21T14:07:03.486Z,23.49
2022-09-21T14:09:42.034Z,23.47
2022-09-21T14:12:19.561Z,23.44
2022-09-21T14:15:30.826Z,23.34
2022-09-21T14:18:18.774Z,22.96
2022-09-21T14:21:11.616Z,22.66
2022-09-21T14:23:39.768Z,22.42
2022-09-21T14:26:34.242Z,22.13
2022-09-21T14:29:39.584Z,21.89
2022-09-21T14:32:19.199Z,21.74
2022-09-21T14:34:48.810Z,21.62
2022-09-21T14:37:33.844Z,21.45
2022-09-21T14:40:16.335Z,21.39
2022-09-21T14:42:44.055Z,21.31
2022-09-21T14:45:20.611Z,21.22
2022-09-21T14:48:08.636Z,21.12
2022-09-21T14:50:47.911Z,21.07
2022-09-21T14:53:28.088Z,21.04
2022-09-21T14:57:08.590Z,20.90
2022-09-21T15:00:15.605Z,20.82
2022-09-21T15:02:44.961Z,20.79
2022-09-21T15:05:36.409Z,20.79
2022-09-21T15:08:46.001Z,20.86
2022-09-21T15:11:28.749Z,20.93
2022-09-21T15:14:28.233Z,20.99
2022-09-21T15:16:55.109Z,21.01
2022-09-21T15:19:26.197Z,20.98
2022-09-21T15:22:22.975Z,21.00
2022-09-21T15:24:59.337Z,20.90
2022-09-21T15:27:33.182Z,20.74
2022-09-21T15:30:03.528Z,20.69
2022-09-21T15:32:40.024Z,20.58
2022-09-21T15:35:17.549Z,20.50
2022-09-21T15:37:45.765Z,20.44
2022-09-21T15:40:23.982Z,20.36
2022-09-21T15:43:16.861Z,20.32
2022-09-21T15:45:59.195Z,20.28
2022-09-21T15:48:34.731Z,20.22
2022-09-21T15:51:24.623Z,20.25
2022-09-21T15:54:01.873Z,20.20
2022-09-21T15:56:29.259Z,20.17
2022-09-21T15:59:08.498Z,20.15
2022-09-21T16:01:47.944Z,20.08
2022-09-21T16:04:19.505Z,20.03
2022-09-21T16:07:01.010Z,20.00
2022-09-21T16:09:40.398Z,19.97
2022-09-21T16:12:26.055Z,19.96
2022-09-21T16:15:05.603Z,19.99
2022-09-21T16:17:37.818Z,20.04
2022-09-21T16:20:16.160Z,20.11
2022-09-21T16:22:47.544Z,20.24
2022-09-21T16:25:22.233Z,20.31
2022-09-21T16:28:00.286Z,20.20
2022-09-21T16:30:47.183Z,20.06
2022-09-21T16:33:40.892Z,19.94
2022-09-21T16:36:32.472Z,19.85
2022-09-21T16:39:00.766Z,19.82
2022-09-21T16:41:36.202Z,19.81
2022-09-21T16:44:03.572Z,19.77
2022-09-21T16:46:31.875Z,19.74
2022-09-21T16:49:00.676Z,19.76
2022-09-21T16:51:28.517Z,19.76
2022-09-21T16:53:59.980Z,19.77
2022-09-21T16:56:27.275Z,19.74
2022-09-21T16:58:54.160Z,19.67
2022-09-21T17:01:21.114Z,19.56
2022-09-21T17:03:48.448Z,19.57
2022-09-21T17:06:19.224Z,19.58
2022-09-21T17:08:50.259Z,19.61
2022-09-21T17:11:21.746Z,19.65
2022-09-21T17:13:50.166Z,19.65
2022-09-21T17:16:20.129Z,19.67
2022-09-21T17:18:48.726Z,19.65
2022-09-21T17:21:16.810Z,19.64
2022-09-21T17:23:43.805Z,19.60
2022-09-21T17:26:19.179Z,19.57
2022-09-21T17:28:46.077Z,19.54
2022-09-21T17:31:16.448Z,19.48
2022-09-21T17:33:44.841Z,19.38
2022-09-21T17:36:16.296Z,19.24
2022-09-21T17:38:44.287Z,19.00
2022-09-21T17:41:25.875Z,18.74
2022-09-21T17:44:17.466Z,18.56
2022-09-21T17:46:54.756Z,18.43
2022-09-21T17:49:21.806Z,18.41
2022-09-21T17:52:07.698Z,18.39
2022-09-21T17:54:36.175Z,18.40
2022-09-21T17:57:34.072Z,18.37
2022-09-21T18:00:19.419Z,18.36
2022-09-21T18:02:47.390Z,18.34
2022-09-21T18:05:30.750Z,18.30
2022-09-21T18:07:57.788Z,18.27
2022-09-21T18:10:26.205Z,18.24
2022-09-21T18:13:11.335Z,18.19
2022-09-21T18:15:40.972Z,18.14
2022-09-21T18:18:31.788Z,18.09
2022-09-21T18:21:17.235Z,18.02
2022-09-21T18:24:08.165Z,17.95
2022-09-21T18:26:35.282Z,17.81
2022-09-21T18:29:22.513Z,17.85
2022-09-21T18:32:18.225Z,17.74
2022-09-21T18:35:15.835Z,17.70
2022-09-21T18:38:10.683Z,17.58
2022-09-21T18:41:31.071Z,17.54
2022-09-21T18:44:09.242Z,17.48
2022-09-21T18:47:06.537Z,17.41
2022-09-21T18:50:04.020Z,17.33
2022-09-21T18:52:54.313Z,17.22
2022-09-21T18:55:26.975Z,17.21
2022-09-21T18:57:55.700Z,17.15
2022-09-21T19:00:25.116Z,17.11
2022-09-21T19:03:12.720Z,17.08
2022-09-21T19:05:58.471Z,17.02
2022-09-21T19:08:57.860Z,16.94
2022-09-21T19:12:10.860Z,16.88
2022-09-21T19:14:55.579Z,16.79
2022-09-21T19:17:49.079Z,16.76
2022-09-21T19:21:01.246Z,16.68
2022-09-21T19:23:46.199Z,16.61
2022-09-21T19:26:29.811Z,16.56
2022-09-21T19:29:27.898Z,16.48
2022-09-21T19:31:55.035Z,16.44
2022-09-21T19:34:21.981Z,16.39
2022-09-21T19:36:50.027Z,16.33
2022-09-21T19:39:17.106Z,16.27
2022-09-21T19:42:00.076Z,16.25
2022-09-21T19:44:47.651Z,16.19
2022-09-21T19:47:29.275Z,16.15
2022-09-21T19:50:13.978Z,16.09
2022-09-21T19:52:41.334Z,16.04
2022-09-21T19:55:39.777Z,15.94
2022-09-21T19:58:25.491Z,15.93
2022-09-21T20:00:56.780Z,15.87
2022-09-21T20:03:38.547Z,15.79
2022-09-21T20:06:23.155Z,15.77
2022-09-21T20:08:57.394Z,15.73
2022-09-21T20:11:54.509Z,15.67
2022-09-21T20:14:36.826Z,15.59
2022-09-21T20:17:09.841Z,15.59
2022-09-21T20:19:51.487Z,15.50
2022-09-21T20:22:35.837Z,15.48
2022-09-21T20:25:15.776Z,15.43
2022-09-21T20:27:47.266Z,15.37
2022-09-21T20:30:17.527Z,15.33
2022-09-21T20:32:49.982Z,15.31
2022-09-21T20:35:21.885Z,15.27
2022-09-21T20:37:50.512Z,15.23
2022-09-21T20:40:18.544Z,15.19
2022-09-21T20:42:45.461Z,15.16
2022-09-21T20:45:13.598Z,15.09
2022-09-21T20:47:40.473Z,15.04
2022-09-21T20:50:11.920Z,14.99
2022-09-21T20:52:41.393Z,14.91
2022-09-21T20:55:10.357Z,14.90
2022-09-21T20:57:37.299Z,14.85
2022-09-21T21:00:10.741Z,14.82
2022-09-21T21:02:37.626Z,14.78
2022-09-21T21:05:07.910Z,14.74
2022-09-21T21:07:35.459Z,14.68
2022-09-21T21:10:02.590Z,14.66
2022-09-21T21:12:30.062Z,14.62
2022-09-21T21:14:59.109Z,14.60
2022-09-21T21:17:26.038Z,14.54
2022-09-21T21:19:53.330Z,14.50
2022-09-21T21:22:20.238Z,14.42
2022-09-21T21:24:47.164Z,14.42
2022-09-21T21:27:18.076Z,14.39
2022-09-21T21:29:46.912Z,14.35
2022-09-21T21:32:14.956Z,14.29
2022-09-21T21:34:42.776Z,14.26
2022-09-21T21:37:13.699Z,14.23
2022-09-21T21:39:40.677Z,14.20
2022-09-21T21:42:07.776Z,14.18
2022-09-21T21:44:34.658Z,14.15
2022-09-21T21:47:15.445Z,14.09
2022-09-21T21:49:48.594Z,14.04
2022-09-21T21:52:15.591Z,14.01
2022-09-21T21:54:42.460Z,13.97
2022-09-21T21:57:10.082Z,13.96
2022-09-21T21:59:37.063Z,13.94
2022-09-21T22:02:04.348Z,13.91
2022-09-21T22:04:31.356Z,13.88
2022-09-21T22:06:58.242Z,13.86
2022-09-21T22:09:25.168Z,13.81
2022-09-21T22:11:52.421Z,13.76
2022-09-21T22:14:19.431Z,13.75
2022-09-21T22:16:46.439Z,13.68
2022-09-21T22:19:13.447Z,13.68
2022-09-21T22:21:46.600Z,13.65
2022-09-21T22:24:15.171Z,13.62
2022-09-21T22:26:44.904Z,13.59
2022-09-21T22:29:14.609Z,13.54
2022-09-21T22:31:45.081Z,13.48
2022-09-21T22:34:12.651Z,13.41
2022-09-21T22:36:40.443Z,13.42
2022-09-21T22:39:08.381Z,13.40
2022-09-21T22:41:39.103Z,13.35
2022-09-21T22:44:06.754Z,13.31
2022-09-21T22:46:34.174Z,13.30
2022-09-21T22:49:01.411Z,13.24
2022-09-21T22:51:29.212Z,13.26
2022-09-21T22:53:56.823Z,13.24
2022-09-21T22:56:27.156Z,13.19
2022-09-21T22:58:58.914Z,13.15
2022-09-21T23:01:29.508Z,13.12
2022-09-21T23:04:03.316Z,13.10
2022-09-21T23:06:33.478Z,13.08
2022-09-21T23:09:02.958Z,13.06
2022-09-21T23:11:33.640Z,13.03
2022-09-21T23:14:00.967Z,12.98
2022-09-21T23:16:29.488Z,12.96
2022-09-21T23:18:57.876Z,12.95
2022-09-21T23:21:29.084Z,12.94
2022-09-21T23:24:00.056Z,12.92
2022-09-21T23:26:30.172Z,12.88
2022-09-21T23:29:01.161Z,12.84
2022-09-21T23:31:29.741Z,12.81
2022-09-21T23:34:00.568Z,12.78
2022-09-21T23:36:30.231Z,12.75
2022-09-21T23:38:58.012Z,12.74
2022-09-21T23:41:31.471Z,12.70
2022-09-21T23:43:59.324Z,12.68
2022-09-21T23:46:36.369Z,12.66
2022-09-21T23:49:03.880Z,12.63
2022-09-21T23:51:30.728Z,12.61
2022-09-21T23:53:58.733Z,12.59
2022-09-21T23:56:26.471Z,12.56
2022-09-21T23:58:53.702Z,12.55
